Archival Weather

Chicago O'Hare International

Chicago, Illinois (KORD)

Report from: Tuesday, May 2, 2023 11:51 PM CDT
Current time: Sunday, February 25, 2024 2:32 PM CST

Current weather – Weather history – Daily summaries
Weather forecast

Temperature7.2°C (45.0°F)
Wind chill3.6°C (38.5°F)
Dew point-1.7°C (28.9°F)
Winds 12 kts (6.2 m/s, 13.8 mph) North-Northwest (340°)
Wind gusts 21 kts (10.8 m/s, 24.2 mph)
Visibility10 mi. (16.1 km)
Clouds Ceiling: Broken clouds 4,800 ft. (1,463 m)
Broken clouds 6,000 ft. (1,829 m)
Altimeter29.79 in.Hg (1009 mB)
Relative humidity53 %
Density altitude-713 ft. (-217 m)
Sea-level pressure100.9 kPa (1009 mB, 29.80 in.Hg)
Remarks Automated weather observing station with precipitation discriminator
Flight conditions Visual Meteorological Conditions
Raw dataKORD 030451Z 34012G21KT 10SM BKN048 BKN060 07/M02 A2979 RMK AO2 SLP091 T00721017
An error has occurred. This application may no longer respond until reloaded. Reload 🗙